createdAt,value
2023-03-27T00:02:23.684Z,16.17
2023-03-27T00:04:54.573Z,16.80
2023-03-27T00:07:22.668Z,11.93
2023-03-27T00:09:53.889Z,17.83
2023-03-27T00:12:21.226Z,12.02
2023-03-27T00:14:48.994Z,13.98
2023-03-27T00:17:19.358Z,16.92
2023-03-27T00:19:47.144Z,21.15
2023-03-27T00:22:14.886Z,23.77
2023-03-27T00:24:42.478Z,16.92
2023-03-27T00:27:09.876Z,17.17
2023-03-27T00:29:37.763Z,16.98
2023-03-27T00:32:05.086Z,16.33
2023-03-27T00:34:33.039Z,11.80
2023-03-27T00:37:00.216Z,12.70
2023-03-27T00:39:28.687Z,16.45
2023-03-27T00:41:56.094Z,13.40
2023-03-27T00:44:23.946Z,18.65
2023-03-27T00:46:54.531Z,10.90
2023-03-27T00:49:23.861Z,19.15
2023-03-27T00:51:53.058Z,18.45
2023-03-27T00:54:27.104Z,18.27
2023-03-27T00:56:59.178Z,11.75
2023-03-27T00:59:31.843Z,17.60
2023-03-27T01:02:01.845Z,13.38
2023-03-27T01:04:31.585Z,14.77
2023-03-27T01:07:00.938Z,12.90
2023-03-27T01:09:29.040Z,12.23
2023-03-27T01:12:05.303Z,14.43
2023-03-27T01:14:37.963Z,15.10
2023-03-27T01:17:23.864Z,15.55
2023-03-27T01:20:30.307Z,14.30
2023-03-27T01:23:16.960Z,12.77
2023-03-27T01:26:04.377Z,12.80
2023-03-27T01:28:42.578Z,12.18
2023-03-27T01:31:28.768Z,11.98
2023-03-27T01:34:28.891Z,12.15
2023-03-27T01:37:28.675Z,9.60
2023-03-27T01:40:07.971Z,12.15
2023-03-27T01:42:38.149Z,10.05
2023-03-27T01:45:13.429Z,15.57
2023-03-27T01:47:52.111Z,9.50
2023-03-27T01:50:39.204Z,11.63
2023-03-27T01:53:13.998Z,11.57
2023-03-27T01:55:45.844Z,10.02
2023-03-27T01:58:28.305Z,10.73
2023-03-27T02:01:00.527Z,10.90
2023-03-27T02:03:42.067Z,10.95
2023-03-27T02:06:17.785Z,9.35
2023-03-27T02:08:48.509Z,9.55
2023-03-27T02:11:16.395Z,10.13
2023-03-27T02:13:53.858Z,10.80
2023-03-27T02:16:26.750Z,10.40
2023-03-27T02:19:03.095Z,8.07
2023-03-27T02:21:33.157Z,9.27
2023-03-27T02:24:02.464Z,6.88
2023-03-27T02:26:30.608Z,10.30
2023-03-27T02:29:08.294Z,3.88
2023-03-27T02:31:41.185Z,9.38
2023-03-27T02:34:57.046Z,7.72
2023-03-27T02:37:31.983Z,5.57
2023-03-27T02:40:30.060Z,11.45
2023-03-27T02:43:03.661Z,15.18
2023-03-27T02:45:46.046Z,20.40
2023-03-27T02:48:31.790Z,8.30
2023-03-27T02:51:04.199Z,7.53
2023-03-27T02:53:42.152Z,7.88
2023-03-27T02:56:10.767Z,9.45
2023-03-27T02:58:50.572Z,9.80
2023-03-27T03:01:20.236Z,15.75
2023-03-27T03:03:55.260Z,16.25
2023-03-27T03:06:29.881Z,13.27
2023-03-27T03:09:06.052Z,16.30
2023-03-27T03:11:44.712Z,12.73
2023-03-27T03:14:12.124Z,12.73
2023-03-27T03:16:40.056Z,8.20
2023-03-27T03:19:07.465Z,8.77
2023-03-27T03:21:36.228Z,14.60
2023-03-27T03:24:03.391Z,7.57
2023-03-27T03:26:30.658Z,9.60
2023-03-27T03:29:00.719Z,8.80
2023-03-27T03:31:43.104Z,8.20
2023-03-27T03:34:16.369Z,9.35
2023-03-27T03:36:49.225Z,10.80
2023-03-27T03:39:18.314Z,12.65
2023-03-27T03:41:46.007Z,10.02
2023-03-27T03:44:13.437Z,7.22
2023-03-27T03:46:41.228Z,7.43
2023-03-27T03:49:08.601Z,14.98
2023-03-27T03:51:36.704Z,16.40
2023-03-27T03:54:09.164Z,16.42
2023-03-27T03:56:41.516Z,22.25
2023-03-27T03:59:11.815Z,24.30
2023-03-27T04:01:40.859Z,26.70
2023-03-27T04:04:09.304Z,30.33
2023-03-27T04:06:37.859Z,16.10
2023-03-27T04:09:05.997Z,9.57
2023-03-27T04:11:33.810Z,8.95
2023-03-27T04:14:01.353Z,14.10
2023-03-27T04:16:29.331Z,11.00
2023-03-27T04:18:57.008Z,10.88
2023-03-27T04:21:26.858Z,14.35
2023-03-27T04:23:53.947Z,11.15
2023-03-27T04:26:26.537Z,8.05
2023-03-27T04:28:54.306Z,10.30
2023-03-27T04:31:21.758Z,11.23
2023-03-27T04:33:52.119Z,12.98
2023-03-27T04:36:20.779Z,8.90
2023-03-27T04:38:48.343Z,7.38
2023-03-27T04:41:17.037Z,11.32
2023-03-27T04:43:46.136Z,4.60
2023-03-27T04:46:13.960Z,10.80
2023-03-27T04:48:41.463Z,7.68
2023-03-27T04:51:09.626Z,5.72
2023-03-27T04:53:38.030Z,6.70
2023-03-27T04:56:06.505Z,9.00
2023-03-27T04:58:36.684Z,7.03
2023-03-27T05:01:05.654Z,6.40
2023-03-27T05:03:34.856Z,9.45
2023-03-27T05:06:04.577Z,9.13
2023-03-27T05:08:32.686Z,6.00
2023-03-27T05:11:00.539Z,11.32
2023-03-27T05:13:28.727Z,7.10
2023-03-27T05:15:59.372Z,6.93
2023-03-27T05:18:26.433Z,8.98
2023-03-27T05:20:53.687Z,11.68
2023-03-27T05:23:21.379Z,10.55
2023-03-27T05:25:59.756Z,15.02
2023-03-27T05:28:28.438Z,9.52
2023-03-27T05:30:57.170Z,9.07
2023-03-27T05:33:24.489Z,5.32
2023-03-27T05:35:52.561Z,13.50
2023-03-27T05:38:20.485Z,8.07
2023-03-27T05:40:48.532Z,7.18
2023-03-27T05:43:16.268Z,7.13
2023-03-27T05:45:43.603Z,8.20
2023-03-27T05:48:11.200Z,8.95
2023-03-27T05:50:38.934Z,8.52
2023-03-27T05:53:10.168Z,5.43
2023-03-27T05:55:40.441Z,7.05
2023-03-27T05:58:10.100Z,5.80
2023-03-27T06:00:38.826Z,7.13
2023-03-27T06:03:07.130Z,16.80
2023-03-27T06:05:37.591Z,22.83
2023-03-27T06:08:04.641Z,10.35
2023-03-27T06:10:34.314Z,15.27
2023-03-27T06:13:06.607Z,5.80
2023-03-27T06:15:34.485Z,4.68
2023-03-27T06:18:01.683Z,5.72
2023-03-27T06:20:29.881Z,4.03
2023-03-27T06:23:01.943Z,5.10
2023-03-27T06:25:32.240Z,5.65
2023-03-27T06:27:59.488Z,4.15
2023-03-27T06:30:28.416Z,6.40
2023-03-27T06:32:58.443Z,11.20
2023-03-27T06:35:31.878Z,4.25
2023-03-27T06:40:29.566Z,5.47
2023-03-27T06:43:05.810Z,2.78
2023-03-27T06:45:45.129Z,4.72
2023-03-27T06:48:20.931Z,5.50
2023-03-27T06:50:50.986Z,2.92
2023-03-27T06:53:27.384Z,3.22
2023-03-27T06:55:56.857Z,2.42
2023-03-27T06:58:24.612Z,3.83
2023-03-27T07:00:52.340Z,7.57
2023-03-27T07:03:21.720Z,7.32
2023-03-27T07:05:49.738Z,7.68
2023-03-27T07:08:24.443Z,9.10
2023-03-27T07:11:09.873Z,6.95
2023-03-27T07:13:40.977Z,4.78
2023-03-27T07:16:12.270Z,3.42
2023-03-27T07:18:39.754Z,4.40
2023-03-27T07:21:08.253Z,1.77
2023-03-27T07:23:35.830Z,1.70
2023-03-27T07:26:04.002Z,2.10
2023-03-27T07:28:35.037Z,4.18
2023-03-27T07:31:25.964Z,5.80
2023-03-27T07:33:58.609Z,3.72
2023-03-27T07:36:26.598Z,5.13
2023-03-27T07:38:54.033Z,4.45
2023-03-27T07:41:22.852Z,4.03
2023-03-27T07:43:49.821Z,3.55
2023-03-27T07:46:17.485Z,1.58
2023-03-27T07:48:44.593Z,4.47
2023-03-27T07:51:14.190Z,1.88
2023-03-27T07:53:41.681Z,4.43
2023-03-27T07:56:10.439Z,4.28
2023-03-27T07:58:37.857Z,7.22
2023-03-27T08:01:06.306Z,7.65
2023-03-27T08:03:34.909Z,3.85
2023-03-27T08:06:02.992Z,12.68
2023-03-27T08:08:30.875Z,13.05
2023-03-27T08:10:59.376Z,5.53
2023-03-27T08:13:26.731Z,3.58
2023-03-27T08:16:05.831Z,2.55
2023-03-27T08:18:33.322Z,3.83
2023-03-27T08:21:03.216Z,4.97
2023-03-27T08:23:32.716Z,4.53
2023-03-27T08:26:00.641Z,5.63
2023-03-27T08:28:32.802Z,3.47
2023-03-27T08:31:02.360Z,4.97
2023-03-27T08:33:30.383Z,9.45
2023-03-27T08:35:58.395Z,3.78
2023-03-27T08:38:28.276Z,4.32
2023-03-27T08:40:59.146Z,3.55
2023-03-27T08:43:39.625Z,5.57
2023-03-27T08:46:15.583Z,5.40
2023-03-27T08:48:44.201Z,6.22
2023-03-27T08:51:16.799Z,1.80
2023-03-27T08:53:53.123Z,4.72
2023-03-27T08:56:21.297Z,5.78
2023-03-27T08:58:49.103Z,3.28
2023-03-27T09:01:45.528Z,1.88
2023-03-27T09:04:31.655Z,3.65
2023-03-27T09:07:13.062Z,8.90
2023-03-27T09:10:08.252Z,3.05
2023-03-27T09:12:36.109Z,1.73
2023-03-27T09:15:26.123Z,2.97
2023-03-27T09:18:09.348Z,4.60
2023-03-27T09:20:50.977Z,1.30
2023-03-27T09:23:20.961Z,1.75
2023-03-27T09:25:53.488Z,2.20
2023-03-27T09:28:25.165Z,4.45
2023-03-27T09:30:53.073Z,2.92
2023-03-27T09:33:21.145Z,3.22
2023-03-27T09:35:48.738Z,2.78
2023-03-27T09:38:34.967Z,1.85
2023-03-27T09:41:08.242Z,5.25
2023-03-27T09:43:49.193Z,2.15
2023-03-27T09:46:20.052Z,1.67
2023-03-27T09:49:01.392Z,3.50
2023-03-27T09:51:53.957Z,3.00
2023-03-27T09:54:24.850Z,4.47
2023-03-27T09:56:58.591Z,2.20
2023-03-27T09:59:59.312Z,3.22
2023-03-27T10:02:28.981Z,1.63
2023-03-27T10:05:12.128Z,4.47
2023-03-27T10:07:40.732Z,4.65
2023-03-27T10:10:17.680Z,2.40
2023-03-27T10:12:50.626Z,3.92
2023-03-27T10:15:38.648Z,6.70
2023-03-27T10:18:21.422Z,5.57
2023-03-27T10:24:03.417Z,7.55
2023-03-27T10:26:32.803Z,4.93
2023-03-27T10:29:07.103Z,3.67
2023-03-27T10:31:38.121Z,4.50
2023-03-27T10:34:08.369Z,5.18
2023-03-27T10:36:38.101Z,5.70
2023-03-27T10:39:13.875Z,5.35
2023-03-27T10:41:41.950Z,3.35
2023-03-27T10:44:20.825Z,31.38
2023-03-27T10:46:48.620Z,5.63
2023-03-27T10:49:44.551Z,1.80
2023-03-27T10:52:33.995Z,1.35
2023-03-27T10:55:34.890Z,0.93
2023-03-27T10:58:12.767Z,3.45
2023-03-27T11:00:46.593Z,3.60
2023-03-27T11:03:35.268Z,1.77
2023-03-27T11:06:06.184Z,3.83
2023-03-27T11:08:47.995Z,4.10
2023-03-27T11:11:27.173Z,4.57
2023-03-27T11:14:02.233Z,1.50
2023-03-27T11:16:37.792Z,3.28
2023-03-27T11:19:11.349Z,2.53
2023-03-27T11:21:49.814Z,2.03
2023-03-27T11:24:32.356Z,2.15
2023-03-27T11:27:14.325Z,9.55
2023-03-27T11:30:08.221Z,1.88
2023-03-27T11:32:49.303Z,3.13
2023-03-27T11:35:25.841Z,1.25
2023-03-27T11:37:59.686Z,1.02
2023-03-27T11:40:42.137Z,0.98
2023-03-27T11:43:13.366Z,1.55
2023-03-27T11:45:59.165Z,6.50
2023-03-27T11:48:53.909Z,4.00
2023-03-27T11:51:48.677Z,1.95
2023-03-27T11:54:16.093Z,1.48
2023-03-27T11:56:43.738Z,1.67
2023-03-27T11:59:32.381Z,6.40
2023-03-27T12:02:21.337Z,5.13
2023-03-27T12:04:57.752Z,3.70
2023-03-27T12:08:01.438Z,2.20
2023-03-27T12:10:37.325Z,1.65
2023-03-27T12:13:47.766Z,1.20
2023-03-27T12:16:17.260Z,1.35
2023-03-27T12:19:10.807Z,3.08
2023-03-27T12:21:46.579Z,3.45
2023-03-27T12:24:34.548Z,2.05
2023-03-27T12:27:24.760Z,2.58
2023-03-27T12:30:16.969Z,2.20
2023-03-27T12:33:16.282Z,1.65
2023-03-27T12:35:57.808Z,3.15
2023-03-27T12:38:40.469Z,6.88
2023-03-27T12:41:24.904Z,2.15
2023-03-27T12:43:59.817Z,4.70
2023-03-27T12:46:28.466Z,1.60
2023-03-27T12:49:07.936Z,4.70
2023-03-27T12:51:51.302Z,6.57
2023-03-27T12:54:30.480Z,6.38
2023-03-27T12:57:14.300Z,8.80
2023-03-27T13:02:34.927Z,3.70
2023-03-27T13:08:12.760Z,1.77
2023-03-27T13:11:31.260Z,3.42
2023-03-27T13:14:27.641Z,3.58
2023-03-27T13:17:12.676Z,0.80
2023-03-27T13:20:10.173Z,1.83
2023-03-27T13:23:08.287Z,4.38
2023-03-27T13:26:10.530Z,5.95
2023-03-27T13:28:40.229Z,2.55
2023-03-27T13:31:11.764Z,2.97
2023-03-27T13:34:08.429Z,5.57
2023-03-27T13:36:36.105Z,3.85
2023-03-27T13:39:04.738Z,5.15
2023-03-27T13:41:44.065Z,4.03
2023-03-27T13:44:33.006Z,5.55
2023-03-27T13:47:34.290Z,6.70
2023-03-27T13:50:23.400Z,3.72
2023-03-27T13:53:32.865Z,6.57
2023-03-27T13:56:09.669Z,2.88
2023-03-27T13:59:21.603Z,5.57
2023-03-27T14:02:22.426Z,3.80
2023-03-27T14:05:02.328Z,6.15
2023-03-27T14:07:47.930Z,5.57
2023-03-27T14:10:50.498Z,4.10
2023-03-27T14:13:55.758Z,3.72
2023-03-27T14:16:23.727Z,4.40
2023-03-27T14:19:20.473Z,1.73
2023-03-27T14:21:56.689Z,6.72
2023-03-27T14:24:56.145Z,8.30
2023-03-27T14:27:24.620Z,5.10
2023-03-27T14:30:07.231Z,4.32
2023-03-27T14:32:35.746Z,3.03
2023-03-27T14:35:04.773Z,5.38
2023-03-27T14:37:36.295Z,4.75
2023-03-27T14:40:20.055Z,3.40
2023-03-27T14:42:50.437Z,3.75
2023-03-27T14:45:23.032Z,4.47
2023-03-27T14:48:12.638Z,2.28
2023-03-27T14:50:40.743Z,2.65
2023-03-27T14:53:10.975Z,3.67
2023-03-27T14:55:40.216Z,3.88
2023-03-27T14:58:18.418Z,2.88
2023-03-27T15:00:51.528Z,1.20
2023-03-27T15:03:22.558Z,1.75
2023-03-27T15:05:58.592Z,4.10
2023-03-27T15:08:28.673Z,2.47
2023-03-27T15:10:56.246Z,2.10
2023-03-27T15:13:25.885Z,3.13
2023-03-27T15:15:57.935Z,4.25
2023-03-27T15:18:38.011Z,5.82
2023-03-27T15:21:19.945Z,1.55
2023-03-27T15:24:05.538Z,2.47
2023-03-27T15:26:35.134Z,3.42
2023-03-27T15:29:24.965Z,2.03
2023-03-27T15:31:53.645Z,7.13
2023-03-27T15:34:21.272Z,4.75
2023-03-27T15:36:58.199Z,4.13
2023-03-27T15:39:26.737Z,3.63
2023-03-27T15:42:03.591Z,6.07
2023-03-27T15:44:33.155Z,5.40
2023-03-27T15:47:01.119Z,3.13
2023-03-27T15:49:41.397Z,4.90
2023-03-27T15:52:48.044Z,6.50
2023-03-27T15:55:30.367Z,4.53
2023-03-27T15:57:58.410Z,4.97
2023-03-27T16:00:28.737Z,2.42
2023-03-27T16:02:56.577Z,2.30
2023-03-27T16:05:24.376Z,2.60
2023-03-27T16:07:51.595Z,11.40
2023-03-27T16:10:31.126Z,10.20
2023-03-27T16:13:02.832Z,6.80
2023-03-27T16:15:31.470Z,3.42
2023-03-27T16:18:02.349Z,2.30
2023-03-27T16:20:33.519Z,2.55
2023-03-27T16:23:00.641Z,2.90
2023-03-27T16:25:28.638Z,2.83
2023-03-27T16:27:56.050Z,1.17
2023-03-27T16:30:32.375Z,3.40
2023-03-27T16:33:00.096Z,5.07
2023-03-27T16:35:32.586Z,4.60
2023-03-27T16:38:00.134Z,10.57
2023-03-27T16:40:28.349Z,4.15
2023-03-27T16:42:55.572Z,3.00
2023-03-27T16:45:23.771Z,4.43
2023-03-27T16:47:53.262Z,4.95
2023-03-27T16:50:24.635Z,3.85
2023-03-27T16:52:52.660Z,4.53
2023-03-27T16:55:20.521Z,4.45
2023-03-27T16:57:47.888Z,5.22
2023-03-27T17:00:16.815Z,6.72
2023-03-27T17:02:46.483Z,6.18
2023-03-27T17:05:14.973Z,4.20
2023-03-27T17:07:42.489Z,3.63
2023-03-27T17:10:10.676Z,6.40
2023-03-27T17:12:37.943Z,3.70
2023-03-27T17:15:06.301Z,2.75
2023-03-27T17:17:33.746Z,3.00
2023-03-27T17:20:01.975Z,1.23
2023-03-27T17:22:30.794Z,2.55
2023-03-27T17:25:01.229Z,4.10
2023-03-27T17:27:28.489Z,3.63
2023-03-27T17:29:56.795Z,3.97
2023-03-27T17:32:27.076Z,2.58
2023-03-27T17:34:55.015Z,4.03
2023-03-27T17:37:22.837Z,3.80
2023-03-27T17:39:50.934Z,4.63
2023-03-27T17:42:18.449Z,3.92
2023-03-27T17:44:45.692Z,5.05
2023-03-27T17:47:13.380Z,5.22
2023-03-27T17:49:43.217Z,7.13
2023-03-27T17:52:11.993Z,4.93
2023-03-27T17:54:40.338Z,6.75
2023-03-27T17:57:08.185Z,5.97
2023-03-27T17:59:38.438Z,18.60
2023-03-27T18:02:07.374Z,20.92
2023-03-27T18:04:35.309Z,11.88
2023-03-27T18:07:02.492Z,9.90
2023-03-27T18:09:30.491Z,16.73
2023-03-27T18:11:57.528Z,18.60
2023-03-27T18:14:25.346Z,12.88
2023-03-27T18:16:52.962Z,12.70
2023-03-27T18:19:20.896Z,10.88
2023-03-27T18:21:47.845Z,12.70
2023-03-27T18:24:15.818Z,12.02
2023-03-27T18:26:43.403Z,13.82
2023-03-27T18:29:10.941Z,13.85
2023-03-27T18:31:38.552Z,11.93
2023-03-27T18:34:07.085Z,19.25
2023-03-27T18:36:34.636Z,20.60
2023-03-27T18:39:04.364Z,21.23
2023-03-27T18:41:31.505Z,30.60
2023-03-27T18:43:59.809Z,27.17
2023-03-27T18:46:27.090Z,18.65
2023-03-27T18:48:55.227Z,22.13
2023-03-27T18:51:23.938Z,18.67
2023-03-27T18:53:51.836Z,21.65
2023-03-27T18:56:19.422Z,18.77
2023-03-27T18:58:47.324Z,17.17
2023-03-27T19:01:14.398Z,9.57
2023-03-27T19:03:42.879Z,10.25
2023-03-27T19:06:11.821Z,7.35
2023-03-27T19:08:42.308Z,6.05
2023-03-27T19:11:10.979Z,10.93
2023-03-27T19:13:38.820Z,10.40
2023-03-27T19:16:13.918Z,7.75
2023-03-27T19:18:43.766Z,10.77
2023-03-27T19:21:11.531Z,7.78
2023-03-27T19:23:39.471Z,9.73
2023-03-27T19:26:11.581Z,10.75
2023-03-27T19:28:40.366Z,10.38
2023-03-27T19:31:09.338Z,8.85
2023-03-27T19:33:37.357Z,14.23
2023-03-27T19:36:04.642Z,14.98
2023-03-27T19:38:32.554Z,8.40
2023-03-27T19:40:59.854Z,7.32
2023-03-27T19:43:28.080Z,7.65
2023-03-27T19:46:08.320Z,11.93
2023-03-27T19:48:42.127Z,8.45
2023-03-27T19:51:09.513Z,8.45
2023-03-27T19:53:38.045Z,5.13
2023-03-27T19:56:05.701Z,6.10
2023-03-27T19:58:33.496Z,11.35
2023-03-27T20:01:01.297Z,12.27
2023-03-27T20:03:29.575Z,7.63
2023-03-27T20:06:07.660Z,12.70
2023-03-27T20:08:39.553Z,17.48
2023-03-27T20:11:07.231Z,12.93
2023-03-27T20:13:42.524Z,8.93
2023-03-27T20:16:14.355Z,7.75
2023-03-27T20:18:42.839Z,19.55
2023-03-27T20:21:13.741Z,18.75
2023-03-27T20:23:42.111Z,12.13
2023-03-27T20:26:09.816Z,7.50
2023-03-27T20:28:37.553Z,8.52
2023-03-27T20:31:05.695Z,15.02
2023-03-27T20:33:33.458Z,16.67
2023-03-27T20:36:01.221Z,10.57
2023-03-27T20:38:31.579Z,32.78
2023-03-27T20:41:03.956Z,33.38
2023-03-27T20:43:34.978Z,19.85
2023-03-27T20:46:04.633Z,22.00
2023-03-27T20:48:41.896Z,31.73
2023-03-27T20:51:14.798Z,26.88
2023-03-27T20:53:46.478Z,27.70
2023-03-27T20:56:14.326Z,33.13
2023-03-27T20:58:44.326Z,34.97
2023-03-27T21:01:11.862Z,25.27
2023-03-27T21:03:42.730Z,22.80
2023-03-27T21:06:12.249Z,19.35
2023-03-27T21:08:41.334Z,15.50
2023-03-27T21:11:08.801Z,12.88
2023-03-27T21:13:36.630Z,7.90
2023-03-27T21:16:04.422Z,7.93
2023-03-27T21:18:31.784Z,5.53
2023-03-27T21:20:59.191Z,7.32
2023-03-27T21:23:26.864Z,8.73
2023-03-27T21:25:55.315Z,5.93
2023-03-27T21:28:23.003Z,11.93
2023-03-27T21:30:49.964Z,13.48
2023-03-27T21:33:17.587Z,10.68
2023-03-27T21:35:49.185Z,9.88
2023-03-27T21:38:18.124Z,9.30
2023-03-27T21:40:48.289Z,12.90
2023-03-27T21:43:15.711Z,16.25
2023-03-27T21:45:42.822Z,15.35
2023-03-27T21:48:11.109Z,20.67
2023-03-27T21:50:38.585Z,12.20
2023-03-27T21:53:06.372Z,16.67
2023-03-27T21:55:34.768Z,13.85
2023-03-27T21:58:02.319Z,11.50
2023-03-27T22:00:29.449Z,12.02
2023-03-27T22:02:57.300Z,14.00
2023-03-27T22:05:24.789Z,11.88
2023-03-27T22:07:52.089Z,17.98
2023-03-27T22:10:19.516Z,12.80
2023-03-27T22:12:47.205Z,11.00
2023-03-27T22:15:14.585Z,11.98
2023-03-27T22:17:42.550Z,16.27
2023-03-27T22:20:10.301Z,16.75
2023-03-27T22:22:37.766Z,12.23
2023-03-27T22:25:06.191Z,16.23
2023-03-27T22:27:34.094Z,18.38
2023-03-27T22:30:01.541Z,15.18
2023-03-27T22:32:29.315Z,13.93
2023-03-27T22:34:56.748Z,13.23
2023-03-27T22:37:25.221Z,14.20
2023-03-27T22:39:52.795Z,24.85
2023-03-27T22:42:20.526Z,23.88
2023-03-27T22:44:47.527Z,22.83
2023-03-27T22:47:15.328Z,17.88
2023-03-27T22:49:42.789Z,10.88
2023-03-27T22:52:10.880Z,12.00
2023-03-27T22:54:37.842Z,13.38
2023-03-27T22:57:05.941Z,12.77
2023-03-27T22:59:33.378Z,17.88
2023-03-27T23:02:00.734Z,15.88
2023-03-27T23:04:28.917Z,21.27
2023-03-27T23:06:56.822Z,16.77
2023-03-27T23:09:24.151Z,24.90
2023-03-27T23:11:51.815Z,13.13
2023-03-27T23:14:19.390Z,19.67
2023-03-27T23:16:47.116Z,21.27
2023-03-27T23:19:14.513Z,18.63
2023-03-27T23:21:42.053Z,24.20
2023-03-27T23:24:09.551Z,21.40
2023-03-27T23:26:36.975Z,18.17
2023-03-27T23:29:04.458Z,19.27
2023-03-27T23:31:32.128Z,19.67
2023-03-27T23:33:59.524Z,20.90
2023-03-27T23:36:28.669Z,18.08
2023-03-27T23:38:56.594Z,18.35
2023-03-27T23:41:24.341Z,19.27
2023-03-27T23:43:53.826Z,13.77
2023-03-27T23:46:21.879Z,23.08
2023-03-27T23:48:49.296Z,17.88
2023-03-27T23:51:17.392Z,21.45
2023-03-27T23:53:44.943Z,23.40
2023-03-27T23:56:12.710Z,22.50
2023-03-27T23:58:39.960Z,18.83
